Time;durP1;ratioP1;P1;durP2;ratioP2;P2;SDS_P1;SDS_P2;PMS_P1;PMS_P2;Temp;Humidity;BMP_temperature;BMP_pressure;BME280_temperature;BME280_humidity;BME280_pressure;Samples;Min_cycle;Max_cycle;Signal;HPM_P1;HPM_P2
2023/05/24 00:00:23;;;;;;;12.75;5.78;;;;;;;18.61;99.88;100103.06;10454157;28;20045;-65
2023/05/24 00:05:24;;;;;;;7.28;5.15;;;;;;;18.57;100.00;100083.84;10453485;28;20049;-65
2023/05/24 00:10:25;;;;;;;8.82;5.82;;;;;;;18.50;100.00;100052.69;10454580;28;20102;-65
2023/05/24 00:15:26;;;;;;;7.00;5.00;;;;;;;18.39;100.00;100044.34;10453666;28;20044;-64
2023/05/24 00:20:26;;;;;;;9.27;5.50;;;;;;;18.26;100.00;100079.47;10453767;28;20041;-65
2023/05/24 00:25:27;;;;;;;8.10;5.10;;;;;;;17.73;100.00;100010.97;10453731;28;20045;-65
2023/05/24 00:30:28;;;;;;;12.13;5.35;;;;;;;17.99;100.00;99976.81;10453462;28;20057;-64
2023/05/24 00:35:29;;;;;;;10.65;5.95;;;;;;;17.90;100.00;99962.84;10460414;28;20582;-64
2023/05/24 00:40:29;;;;;;;15.73;7.00;;;;;;;17.86;100.00;99980.50;10460620;28;20041;-64
2023/05/24 00:45:30;;;;;;;11.02;5.90;;;;;;;17.77;100.00;100017.59;10472027;28;20052;-65
2023/05/24 00:50:31;;;;;;;9.13;5.63;;;;;;;17.76;100.00;100013.19;10460847;28;20098;-65
2023/05/24 00:55:35;;;;;;;13.68;5.70;;;;;;;17.72;100.00;100046.94;10460287;28;20041;-66
2023/05/24 01:00:36;;;;;;;14.13;6.60;;;;;;;17.78;100.00;100070.25;10460490;28;20477;-65
2023/05/24 01:05:37;;;;;;;29.73;7.75;;;;;;;17.85;100.00;100089.00;10459585;28;20045;-66
2023/05/24 01:10:53;;;;;;;10.80;6.10;;;;;;;17.68;100.00;100051.13;10459481;28;20497;-66
2023/05/24 01:16:04;;;;;;;28.10;7.20;;;;;;;17.82;100.00;100081.38;10460383;28;20044;-66
2023/05/24 01:21:20;;;;;;;12.20;6.90;;;;;;;17.81;100.00;100081.63;10459644;28;20409;-65
2023/05/24 01:26:31;;;;;;;19.50;7.40;;;;;;;17.88;100.00;100123.47;10458681;28;20144;-65
2023/05/24 01:31:33;;;;;;;24.50;7.68;;;;;;;17.91;100.00;100152.59;10458500;28;20048;-65
2023/05/24 01:36:33;;;;;;;12.27;6.72;;;;;;;17.73;100.00;100139.09;10458706;28;20055;-67
2023/05/24 01:41:44;;;;;;;11.02;7.18;;;;;;;17.93;100.00;100171.22;10458894;28;20049;-65
2023/05/24 01:46:48;;;;;;;11.38;6.75;;;;;;;17.87;100.00;100190.91;10457222;28;20081;-65
2023/05/24 01:52:07;;;;;;;18.67;7.72;;;;;;;18.00;100.00;100205.03;10456598;28;20065;-65
2023/05/24 01:57:09;;;;;;;29.92;8.52;;;;;;;18.06;100.00;100203.34;10458132;28;20075;-65
2023/05/24 02:02:11;;;;;;;20.30;6.78;;;;;;;17.15;100.00;100032.78;10457581;28;20482;-65
2023/05/24 02:07:12;;;;;;;14.52;7.45;;;;;;;17.54;100.00;100106.00;10457332;28;20037;-65
2023/05/24 02:12:13;;;;;;;11.48;7.55;;;;;;;18.17;100.00;100210.69;10458700;28;20128;-65
2023/05/24 02:17:16;;;;;;;14.82;7.40;;;;;;;18.12;100.00;100180.13;10457530;28;20132;-65
2023/05/24 02:22:20;;;;;;;13.93;7.40;;;;;;;17.70;100.00;100124.22;10456631;28;20037;-65
2023/05/24 02:27:21;;;;;;;14.27;7.20;;;;;;;18.03;100.00;100193.03;10455350;28;20052;-65
2023/05/24 02:32:22;;;;;;;8.32;6.75;;;;;;;17.57;100.00;100122.50;10469416;28;20040;-66
2023/05/24 02:37:23;;;;;;;11.07;7.18;;;;;;;18.36;100.00;100187.31;10465789;28;20413;-65
2023/05/24 02:42:23;;;;;;;11.52;5.80;;;;;;;18.98;100.00;100136.13;10456301;28;20041;-65
2023/05/24 02:47:25;;;;;;;15.10;5.28;;;;;;;19.49;100.00;100066.56;10456123;28;20057;-65
2023/05/24 02:52:26;;;;;;;10.52;5.20;;;;;;;20.89;100.00;100145.69;10456447;28;20037;-65
2023/05/24 02:57:27;;;;;;;8.60;4.68;;;;;;;21.27;98.39;100136.94;10454870;28;20559;-65
2023/05/24 03:02:28;;;;;;;9.93;4.07;;;;;;;22.34;93.32;100157.56;10455041;28;20068;-65
2023/05/24 03:07:29;;;;;;;11.60;4.35;;;;;;;22.75;88.92;100146.44;10455896;28;20044;-65
2023/05/24 03:12:30;;;;;;;9.25;4.65;;;;;;;23.14;84.66;100147.16;10455398;28;20091;-65
2023/05/24 03:17:30;;;;;;;6.97;3.50;;;;;;;23.39;82.24;100119.47;10455025;28;20115;-65
2023/05/24 03:22:31;;;;;;;7.68;3.65;;;;;;;24.07;80.33;100149.53;10454307;28;20043;-67
2023/05/24 03:27:32;;;;;;;8.25;3.58;;;;;;;24.89;77.84;100144.53;10458810;28;20087;-66
2023/05/24 03:32:33;;;;;;;5.22;3.67;;;;;;;25.25;74.15;100139.19;10491048;28;20036;-66
2023/05/24 03:37:33;;;;;;;6.88;3.10;;;;;;;24.86;74.48;100131.47;10494239;28;20049;-65
2023/05/24 03:42:34;;;;;;;6.65;3.17;;;;;;;24.38;74.71;100158.69;10495804;28;20067;-65
2023/05/24 03:47:35;;;;;;;9.73;3.72;;;;;;;24.34;74.78;100165.72;10494876;28;20063;-65
2023/05/24 03:52:36;;;;;;;8.07;3.28;;;;;;;24.02;73.39;100103.41;10494679;28;20056;-66
2023/05/24 03:57:37;;;;;;;10.25;3.60;;;;;;;24.74;71.42;100148.00;10495732;28;20090;-66
2023/05/24 04:02:37;;;;;;;11.15;3.58;;;;;;;24.57;69.14;100080.31;10495005;28;20044;-66
2023/05/24 04:07:39;;;;;;;18.25;3.70;;;;;;;24.86;70.31;100115.19;10498644;28;20051;-64
2023/05/24 04:12:40;;;;;;;5.63;3.00;;;;;;;24.97;68.11;100119.53;10503533;28;20056;-64
2023/05/24 04:17:42;;;;;;;6.90;3.20;;;;;;;24.88;67.61;100087.72;10501877;28;20121;-64
2023/05/24 04:22:43;;;;;;;6.65;3.15;;;;;;;25.60;63.41;100072.28;10497319;28;20396;-66
2023/05/24 04:27:47;;;;;;;8.85;3.00;;;;;;;26.52;61.75;100102.00;10497419;28;20057;-66
2023/05/24 04:32:48;;;;;;;7.40;3.28;;;;;;;26.76;59.07;100113.03;10459876;28;20065;-65
2023/05/24 04:37:49;;;;;;;7.75;3.25;;;;;;;27.33;58.38;100189.88;10460719;28;20569;-66
2023/05/24 04:42:50;;;;;;;8.48;3.03;;;;;;;27.30;56.93;100191.25;10486405;28;20076;-67
2023/05/24 04:47:51;;;;;;;4.63;2.80;;;;;;;27.04;56.67;100196.84;10460464;28;20045;-66
2023/05/24 04:52:51;;;;;;;6.07;3.30;;;;;;;27.27;56.24;100200.81;10458939;28;20045;-66
2023/05/24 04:57:52;;;;;;;6.75;3.05;;;;;;;27.42;56.24;100183.53;10459110;28;20127;-64
2023/05/24 05:02:53;;;;;;;10.02;3.38;;;;;;;27.10;55.84;100189.44;10460757;28;20045;-65
2023/05/24 05:07:54;;;;;;;7.18;3.17;;;;;;;26.77;56.73;100202.69;10459713;28;20120;-64
2023/05/24 05:12:54;;;;;;;8.80;3.25;;;;;;;26.48;57.10;100166.28;10459309;28;20045;-64
2023/05/24 05:17:56;;;;;;;7.00;2.80;;;;;;;26.57;58.07;100189.16;10458205;28;20040;-64
2023/05/24 05:22:56;;;;;;;6.10;2.35;;;;;;;26.67;57.67;100202.72;10460041;28;20099;-66
2023/05/24 05:27:57;;;;;;;7.32;2.40;;;;;;;26.54;56.79;100206.88;10459651;28;20049;-65
2023/05/24 05:32:58;;;;;;;10.10;2.65;;;;;;;26.10;58.28;100138.59;10459229;28;20036;-65
2023/05/24 05:37:59;;;;;;;6.40;2.60;;;;;;;26.22;57.39;100163.63;10458352;28;20045;-66
2023/05/24 05:43:00;;;;;;;16.02;2.92;;;;;;;26.58;57.57;100196.22;10458339;28;20048;-66
2023/05/24 05:48:00;;;;;;;11.52;2.67;;;;;;;26.49;57.54;100201.44;10459387;28;20044;-65
2023/05/24 05:53:01;;;;;;;7.05;2.72;;;;;;;26.53;57.76;100190.78;10457871;28;20045;-64
2023/05/24 05:58:02;;;;;;;10.63;3.05;;;;;;;26.27;57.69;100144.56;10458829;28;20044;-66
2023/05/24 06:03:03;;;;;;;61.88;5.22;;;;;;;26.10;58.71;100056.94;10457519;28;20045;-65
2023/05/24 06:08:03;;;;;;;5.85;2.42;;;;;;;26.99;58.38;100172.34;10457941;28;20409;-65
2023/05/24 06:13:04;;;;;;;7.65;2.45;;;;;;;27.17;58.46;100173.63;10457140;28;20045;-65
2023/05/24 06:18:05;;;;;;;11.00;2.65;;;;;;;27.21;56.95;100168.41;10456854;28;20040;-66
2023/05/24 06:23:06;;;;;;;11.57;3.00;;;;;;;27.34;57.09;100194.22;10457152;28;20049;-65
2023/05/24 06:28:07;;;;;;;7.43;1.90;;;;;;;27.36;56.25;100197.50;10456569;28;20115;-66
2023/05/24 06:33:07;;;;;;;4.25;2.10;;;;;;;27.24;54.43;100179.56;10456153;28;20049;-65
2023/05/24 06:38:08;;;;;;;7.80;2.22;;;;;;;27.14;54.14;100176.88;10455991;28;20052;-64
2023/05/24 06:43:09;;;;;;;11.52;4.65;;;;;;;27.06;53.47;100147.47;10456406;28;20041;-66
2023/05/24 06:48:12;;;;;;;11.18;2.45;;;;;;;26.92;55.81;100121.94;10455566;28;20467;-66
2023/05/24 06:53:12;;;;;;;14.60;2.80;;;;;;;27.02;54.45;100135.53;10456016;28;20036;-65
2023/05/24 06:58:13;;;;;;;11.95;5.72;;;;;;;27.60;54.84;100176.56;10455294;28;20451;-65
2023/05/24 07:03:14;;;;;;;6.35;2.78;;;;;;;27.48;54.74;100107.94;10455466;28;20048;-66
2023/05/24 07:08:15;;;;;;;5.32;2.22;;;;;;;27.85;53.40;100156.47;10455644;28;20036;-65
2023/05/24 07:13:16;;;;;;;4.65;2.15;;;;;;;27.87;53.89;100112.50;10455212;28;20492;-66
2023/05/24 07:18:16;;;;;;;4.05;2.10;;;;;;;27.57;52.79;100111.66;10454543;28;20083;-65
2023/05/24 07:23:17;;;;;;;8.30;2.10;;;;;;;28.00;53.93;100185.56;10455283;28;20052;-65
2023/05/24 07:28:19;;;;;;;11.18;2.90;;;;;;;27.93;54.22;100125.00;10470382;28;20404;-66
2023/05/24 07:33:20;;;;;;;6.97;2.17;;;;;;;28.45;52.28;100169.81;10455049;28;20142;-65
2023/05/24 07:38:21;;;;;;;9.65;2.47;;;;;;;28.70;53.03;100170.59;10454102;28;20037;-65
2023/05/24 07:43:22;;;;;;;5.30;2.30;;;;;;;28.58;52.93;100160.88;10453313;28;20079;-66
2023/05/24 07:48:23;;;;;;;6.85;2.33;;;;;;;28.53;51.89;100150.00;10453222;28;20108;-65
2023/05/24 07:53:24;;;;;;;7.32;2.53;;;;;;;27.89;51.36;100075.63;10454393;28;20224;-66
2023/05/24 07:58:25;;;;;;;8.60;2.33;;;;;;;28.51;51.77;100124.91;10454522;28;20211;-65
2023/05/24 08:03:26;;;;;;;29.60;10.27;;;;;;;28.83;50.02;100112.44;10454545;28;20127;-64
2023/05/24 08:08:27;;;;;;;11.23;3.63;;;;;;;28.99;50.66;100127.53;10454606;28;20047;-65
2023/05/24 08:13:27;;;;;;;9.57;2.95;;;;;;;29.04;51.60;100105.59;10453255;28;20045;-65
2023/05/24 08:18:28;;;;;;;7.70;2.78;;;;;;;29.22;49.69;100112.16;10453033;28;20033;-65
2023/05/24 08:23:29;;;;;;;4.45;2.10;;;;;;;29.31;49.12;100107.63;10453650;28;20044;-65
2023/05/24 08:28:30;;;;;;;6.97;2.53;;;;;;;29.46;49.52;100103.00;10452772;28;20531;-65
2023/05/24 08:33:31;;;;;;;9.73;2.47;;;;;;;29.64;49.92;100091.22;10453715;28;20041;-66
2023/05/24 08:38:32;;;;;;;32.30;3.20;;;;;;;29.74;49.89;100093.78;10453332;28;20098;-66
2023/05/24 08:43:34;;;;;;;34.10;3.58;;;;;;;29.78;49.76;100094.00;10453500;28;20045;-66
2023/05/24 08:48:45;;;;;;;7.83;2.43;;;;;;;29.99;48.73;100087.00;10453880;28;20037;-65
2023/05/24 08:53:49;;;;;;;6.38;2.55;;;;;;;29.70;48.73;100078.25;10456320;28;20068;-65
2023/05/24 08:58:50;;;;;;;8.35;2.55;;;;;;;29.61;48.07;100050.75;10461143;28;20448;-65
2023/05/24 09:03:53;;;;;;;26.75;3.47;;;;;;;30.00;49.93;100069.47;10460238;28;20048;-65
2023/05/24 09:08:55;;;;;;;10.40;2.50;;;;;;;30.00;47.42;100074.13;10460810;28;20037;-65
2023/05/24 09:13:56;;;;;;;7.15;2.28;;;;;;;29.46;46.26;99982.59;10458179;28;20045;-66
2023/05/24 09:18:57;;;;;;;5.40;2.10;;;;;;;29.99;46.39;100062.34;10459196;28;20071;-65
2023/05/24 09:23:58;;;;;;;5.80;2.38;;;;;;;29.90;45.06;100001.19;10459688;28;20044;-66
2023/05/24 09:28:59;;;;;;;8.07;2.67;;;;;;;30.28;43.84;100061.25;10457993;28;20057;-65
2023/05/24 09:34:00;;;;;;;5.10;2.55;;;;;;;29.88;42.81;100016.31;10458620;28;20504;-66
2023/05/24 09:39:10;;;;;;;11.77;4.18;;;;;;;30.02;43.77;100025.34;10459670;28;20037;-65
2023/05/24 09:44:14;;;;;;;6.75;2.33;;;;;;;30.26;43.44;100068.97;10459528;28;20045;-63
2023/05/24 09:49:15;;;;;;;5.55;2.63;;;;;;;30.57;42.89;100047.19;10458900;28;20048;-65
2023/05/24 09:54:17;;;;;;;6.70;2.60;;;;;;;30.41;42.47;100054.94;10458258;28;20033;-64
2023/05/24 09:59:18;;;;;;;9.75;2.45;;;;;;;30.32;43.22;99998.44;10458186;28;20111;-64
2023/05/24 10:04:31;;;;;;;36.80;4.35;;;;;;;31.15;44.60;100062.03;10457694;28;20040;-65
2023/05/24 10:09:34;;;;;;;4.68;2.28;;;;;;;30.78;42.79;99989.13;10457948;28;20037;-64
2023/05/24 10:14:36;;;;;;;9.05;2.70;;;;;;;31.03;43.19;100035.16;10476283;28;20044;-66
2023/05/24 10:19:37;;;;;;;;;;;;;;;31.47;42.93;100028.03;10498891;28;20547;-65
2023/05/24 10:24:41;;;;;;;8.80;3.28;;;;;;;31.38;43.13;100027.16;10498495;28;19950;-65
2023/05/24 10:29:44;;;;;;;9.45;3.63;;;;;;;31.42;43.02;100022.69;10498547;28;20060;-65
2023/05/24 10:34:45;;;;;;;11.60;3.00;;;;;;;30.98;43.88;99961.22;10498291;28;20048;-66
2023/05/24 10:39:46;;;;;;;6.70;2.83;;;;;;;31.25;43.53;100006.09;10497459;28;20045;-65
2023/05/24 10:44:47;;;;;;;5.35;2.33;;;;;;;31.31;43.31;100000.13;10497349;28;20044;-65
2023/05/24 10:49:52;;;;;;;10.75;3.92;;;;;;;31.55;43.08;100004.47;10496820;28;20060;-65
2023/05/24 10:55:10;;;;;;;10.68;3.00;;;;;;;31.51;43.46;99992.53;10496691;28;20051;-66
2023/05/24 11:00:23;;;;;;;6.38;2.92;;;;;;;31.59;43.19;99999.97;10495492;28;20062;-64
2023/05/24 11:05:24;;;;;;;12.73;3.20;;;;;;;31.61;42.69;99993.03;10497555;28;20040;-64
2023/05/24 11:10:31;;;;;;;5.45;3.10;;;;;;;30.88;41.46;99891.00;10496773;28;20032;-65
2023/05/24 11:15:33;;;;;;;18.35;6.10;;;;;;;31.49;42.74;99957.16;10495978;28;20496;-66
2023/05/24 11:20:37;;;;;;;7.80;2.70;;;;;;;31.64;41.90;99952.34;10497560;28;20419;-65
2023/05/24 11:25:38;;;;;;;4.50;2.47;;;;;;;31.85;41.47;99961.59;10494444;28;20051;-65
2023/05/24 11:30:46;;;;;;;6.70;2.70;;;;;;;31.89;41.68;99940.63;10495609;28;20052;-65
2023/05/24 11:35:51;;;;;;;5.22;2.75;;;;;;;31.81;40.94;99928.50;10496425;28;20036;-66
2023/05/24 11:40:52;;;;;;;22.30;3.08;;;;;;;31.82;40.93;99926.53;10496084;28;20032;-66
2023/05/24 11:45:54;;;;;;;11.82;3.20;;;;;;;32.17;40.03;99945.88;10494347;28;20538;-66
2023/05/24 11:50:56;;;;;;;9.68;3.25;;;;;;;32.00;39.24;99932.91;10495899;28;20045;-66
2023/05/24 11:55:57;;;;;;;6.97;2.75;;;;;;;31.79;38.79;99933.47;10495059;28;20099;-65
2023/05/24 12:00:58;;;;;;;6.05;2.90;;;;;;;31.99;38.80;99937.59;10495209;28;20072;-65
2023/05/24 12:05:59;;;;;;;7.35;2.92;;;;;;;32.22;38.38;99923.72;10495662;28;20040;-65
2023/05/24 12:11:01;;;;;;;10.00;2.88;;;;;;;32.60;38.23;99929.38;10484202;28;20044;-65
2023/05/24 12:16:02;;;;;;;11.68;3.72;;;;;;;32.33;37.36;99921.44;10475180;28;20052;-66
2023/05/24 12:21:08;;;;;;;11.77;3.03;;;;;;;32.04;36.14;99942.94;10462683;28;20051;-65
2023/05/24 12:26:13;;;;;;;18.27;3.10;;;;;;;31.66;37.18;99939.94;10453064;28;20093;-66
2023/05/24 12:31:15;;;;;;;9.63;3.33;;;;;;;31.55;38.41;99935.84;10467150;28;20048;-67
2023/05/24 12:36:16;;;;;;;8.73;3.40;;;;;;;31.42;37.80;99937.59;10474386;28;20037;-66
2023/05/24 12:41:17;;;;;;;7.78;3.08;;;;;;;31.37;37.93;99913.81;10472718;28;20779;-67
2023/05/24 12:46:18;;;;;;;11.02;3.25;;;;;;;31.56;38.50;99930.06;10481134;28;20050;-66
2023/05/24 12:51:19;;;;;;;10.02;3.08;;;;;;;31.52;37.97;99931.81;10471535;28;20390;-68
2023/05/24 12:56:20;;;;;;;7.68;2.80;;;;;;;31.46;39.13;99930.31;10479843;28;20039;-67
2023/05/24 13:01:21;;;;;;;8.77;3.00;;;;;;;31.03;38.12;99873.31;10486734;28;20044;-66
2023/05/24 13:06:23;;;;;;;16.20;3.80;;;;;;;31.08;38.46;99864.13;10478746;28;20401;-67
2023/05/24 13:11:24;;;;;;;8.93;3.22;;;;;;;31.41;38.12;99915.94;10481609;28;20110;-66
2023/05/24 13:16:25;;;;;;;7.00;2.72;;;;;;;31.23;39.01;99915.84;10473629;28;20091;-67
2023/05/24 13:21:26;;;;;;;5.95;2.88;;;;;;;31.36;38.58;99931.44;10484982;28;20048;-66
2023/05/24 13:26:29;;;;;;;12.73;3.67;;;;;;;30.88;39.64;99880.03;10475420;28;20056;-65
2023/05/24 13:31:30;;;;;;;9.00;3.00;;;;;;;31.23;39.71;99942.47;10477630;28;20557;-66
2023/05/24 13:36:31;;;;;;;49.05;5.22;;;;;;;30.98;40.65;99941.22;10499925;28;20093;-68
2023/05/24 13:41:33;;;;;;;9.55;3.20;;;;;;;30.80;40.10;99946.59;10499065;28;20089;-66
2023/05/24 13:46:35;;;;;;;12.20;3.00;;;;;;;30.47;40.46;99921.34;10500781;28;20048;-65
2023/05/24 13:51:36;;;;;;;9.07;2.90;;;;;;;30.25;41.56;99889.28;10492040;28;20048;-66
2023/05/24 13:56:38;;;;;;;6.65;2.75;;;;;;;30.28;40.79;99905.09;10475701;28;20155;-64
2023/05/24 14:01:39;;;;;;;8.20;3.60;;;;;;;30.23;42.05;99932.59;10458413;28;20175;-64
2023/05/24 14:06:40;;;;;;;9.40;2.80;;;;;;;30.10;42.61;99923.28;10471568;28;20171;-65
2023/05/24 14:11:40;;;;;;;13.38;3.25;;;;;;;29.39;43.28;99834.47;10499166;28;20036;-65
2023/05/24 14:16:41;;;;;;;30.60;4.55;;;;;;;29.86;44.39;99939.16;10497700;28;20036;-65
2023/05/24 14:21:42;;;;;;;16.95;3.17;;;;;;;29.79;44.87;99951.31;10499254;28;20045;-65
2023/05/24 14:26:43;;;;;;;13.55;3.13;;;;;;;29.63;45.11;99954.69;10457570;28;20516;-65
2023/05/24 14:31:44;;;;;;;17.40;3.13;;;;;;;29.37;45.33;99955.13;10456516;28;20065;-66
2023/05/24 14:36:46;;;;;;;13.02;3.20;;;;;;;28.60;45.24;99854.53;10456690;28;20049;-65
2023/05/24 14:41:47;;;;;;;13.18;2.60;;;;;;;28.46;46.00;99859.94;10454906;28;20037;-66
2023/05/24 14:46:48;;;;;;;12.68;3.15;;;;;;;28.63;46.19;99919.53;10457492;28;20033;-65
2023/05/24 14:51:49;;;;;;;15.52;3.25;;;;;;;28.71;46.10;99946.16;10455643;28;20452;-64
2023/05/24 14:56:49;;;;;;;10.77;3.13;;;;;;;28.16;46.60;99883.88;10456407;28;20502;-65
2023/05/24 15:01:50;;;;;;;11.98;2.97;;;;;;;28.53;46.70;99936.88;10455190;28;20040;-65
2023/05/24 15:06:51;;;;;;;28.52;3.92;;;;;;;28.31;47.20;99920.25;10455972;28;20043;-64
2023/05/24 15:11:52;;;;;;;18.75;3.50;;;;;;;28.31;48.61;99925.72;10453824;28;20044;-64
2023/05/24 15:16:53;;;;;;;37.15;4.13;;;;;;;28.14;48.99;99913.38;10454901;28;20087;-64
2023/05/24 15:21:54;;;;;;;18.02;3.78;;;;;;;27.85;48.70;99867.13;10464091;28;20080;-65
2023/05/24 15:26:54;;;;;;;29.75;4.25;;;;;;;27.71;48.96;99838.91;10470648;28;20053;-64
2023/05/24 15:31:57;;;;;;;17.73;5.20;;;;;;;28.32;49.68;99924.59;10463420;28;20440;-64
2023/05/24 15:36:58;;;;;;;11.32;3.80;;;;;;;28.22;49.87;99912.72;10455479;28;20040;-64
2023/05/24 15:41:59;;;;;;;16.50;4.60;;;;;;;28.15;50.88;99920.50;10475095;28;20534;-65
2023/05/24 15:47:00;;;;;;;16.77;4.60;;;;;;;27.83;53.78;99912.22;10449565;28;20454;-65
2023/05/24 15:52:01;;;;;;;21.50;4.47;;;;;;;27.60;54.68;99925.53;10454445;28;20551;-64
2023/05/24 15:57:02;;;;;;;37.15;5.93;;;;;;;27.34;56.39;99935.94;10454697;28;20061;-65
2023/05/24 16:02:06;;;;;;;48.63;6.75;;;;;;;26.95;58.95;99917.75;10454974;28;20049;-65
2023/05/24 16:07:07;;;;;;;68.43;26.05;;;;;;;26.75;57.79;99918.75;10462094;28;20111;-64
2023/05/24 16:12:08;;;;;;;42.08;20.08;;;;;;;25.68;59.61;99814.09;10461227;28;20099;-64
2023/05/24 16:17:09;;;;;;;89.75;32.58;;;;;;;26.16;61.16;99942.28;10462020;28;20439;-64
2023/05/24 16:22:10;;;;;;;772.58;602.78;;;;;;;25.84;62.00;99936.47;10462134;28;20049;-64
2023/05/24 16:27:11;;;;;;;455.65;319.05;;;;;;;25.72;62.46;99947.66;10461445;28;20093;-64
2023/05/24 16:32:12;;;;;;;280.90;159.73;;;;;;;25.47;62.84;99954.00;10461267;28;20135;-65
2023/05/24 16:37:13;;;;;;;310.25;189.68;;;;;;;25.18;64.16;99972.81;10477971;28;20124;-64
2023/05/24 16:42:14;;;;;;;301.10;169.65;;;;;;;24.90;65.01;99988.56;10490946;28;20575;-65
2023/05/24 16:47:15;;;;;;;207.52;113.35;;;;;;;24.73;66.17;99982.56;10491743;28;20399;-64
2023/05/24 16:52:16;;;;;;;165.82;94.22;;;;;;;24.24;66.77;99955.88;10476313;28;20131;-67
2023/05/24 16:57:17;;;;;;;138.35;78.93;;;;;;;23.85;67.42;99913.69;10459423;28;20373;-65
2023/05/24 17:02:17;;;;;;;136.80;71.65;;;;;;;23.54;69.33;99926.25;10459123;28;20554;-65
2023/05/24 17:07:18;;;;;;;134.07;68.45;;;;;;;23.66;70.50;99983.00;10459640;28;20773;-64
2023/05/24 17:12:22;;;;;;;119.95;64.53;;;;;;;23.73;71.23;100018.88;10469789;28;20036;-64
2023/05/24 17:17:23;;;;;;;135.38;71.75;;;;;;;23.55;72.11;99998.41;10484142;28;20041;-63
2023/05/24 17:22:23;;;;;;;158.35;83.55;;;;;;;23.71;72.87;100036.47;10459984;28;20048;-63
2023/05/24 17:27:24;;;;;;;180.15;88.35;;;;;;;23.69;72.79;100051.13;10457901;28;20057;-63
2023/05/24 17:32:25;;;;;;;203.88;101.60;;;;;;;23.45;73.40;100026.28;10470487;28;20045;-63
2023/05/24 17:37:26;;;;;;;178.68;92.05;;;;;;;23.53;73.74;100043.94;10482037;28;20040;-62
2023/05/24 17:42:27;;;;;;;208.32;96.07;;;;;;;23.34;73.05;100029.97;10497051;28;20169;-65
2023/05/24 17:47:27;;;;;;;188.07;87.80;;;;;;;23.43;74.05;100049.28;10481840;28;20407;-64
2023/05/24 17:52:28;;;;;;;183.57;89.30;;;;;;;23.39;74.38;100026.47;10468940;28;20519;-65
2023/05/24 17:57:29;;;;;;;112.13;54.03;;;;;;;22.90;74.03;99946.16;10481445;28;20040;-65
2023/05/24 18:02:30;;;;;;;91.65;44.10;;;;;;;22.87;74.44;99938.56;10473919;28;20526;-64
2023/05/24 18:07:31;;;;;;;173.82;73.82;;;;;;;23.14;74.29;99991.88;10482595;28;20051;-64
2023/05/24 18:12:31;;;;;;;233.05;101.72;;;;;;;23.30;74.58;100012.59;10475718;28;20087;-64
2023/05/24 18:17:34;;;;;;;128.10;60.03;;;;;;;23.01;74.65;99949.81;10497653;28;20524;-66
2023/05/24 18:22:35;;;;;;;98.95;45.13;;;;;;;23.32;74.42;99982.53;10477928;28;20050;-64
2023/05/24 18:27:36;;;;;;;110.82;42.42;;;;;;;22.76;73.85;99904.34;10464682;28;20468;-64
2023/05/24 18:32:36;;;;;;;144.27;52.17;;;;;;;22.56;73.38;99861.69;10471007;28;20398;-64
2023/05/24 18:37:37;;;;;;;108.53;43.80;;;;;;;23.28;73.53;99982.25;10474630;28;20518;-65
2023/05/24 18:42:38;;;;;;;88.63;33.58;;;;;;;23.26;73.62;99986.28;10475143;28;20048;-64
2023/05/24 18:47:38;;;;;;;89.82;33.72;;;;;;;23.19;74.19;99984.63;10484958;28;20098;-64
2023/05/24 18:52:39;;;;;;;73.25;28.67;;;;;;;23.19;74.68;99992.75;10497620;28;20036;-64
2023/05/24 18:57:40;;;;;;;57.35;24.63;;;;;;;23.02;75.30;100005.63;10497567;28;20494;-64
2023/05/24 19:02:41;;;;;;;39.38;15.63;;;;;;;22.22;75.79;99920.66;10480510;28;20094;-64
2023/05/24 19:07:42;;;;;;;19.80;8.63;;;;;;;22.87;74.33;100014.38;10454648;28;20041;-64
2023/05/24 19:12:42;;;;;;;14.25;6.15;;;;;;;;;;10455391;28;20082;-64
2023/05/24 19:17:43;;;;;;;14.63;5.03;;;;;;;23.01;71.99;100017.53;10464468;28;20468;-64
2023/05/24 19:22:44;;;;;;;11.05;4.53;;;;;;;23.05;70.83;100015.94;10476735;28;20056;-64
2023/05/24 19:27:45;;;;;;;9.82;5.07;;;;;;;22.79;70.96;99968.81;10466277;28;20056;-64
2023/05/24 19:32:46;;;;;;;24.65;5.30;;;;;;;22.46;71.48;99931.97;10454301;28;20497;-64
2023/05/24 19:37:46;;;;;;;11.93;4.22;;;;;;;22.92;71.63;100028.00;10453350;28;20048;-64
2023/05/24 19:42:47;;;;;;;23.55;5.00;;;;;;;22.52;72.34;99985.09;10454109;28;20044;-66
2023/05/24 19:47:48;;;;;;;12.18;4.43;;;;;;;22.58;73.05;100010.31;10454354;28;20116;-65
2023/05/24 19:52:49;;;;;;;12.00;4.25;;;;;;;22.33;73.27;100006.28;10454402;28;20041;-65
2023/05/24 19:57:50;;;;;;;11.40;4.65;;;;;;;22.53;73.57;100027.34;10454209;28;20037;-65
2023/05/24 20:02:50;;;;;;;18.63;7.40;;;;;;;22.40;73.43;100016.91;10453632;28;20048;-65
2023/05/24 20:07:51;;;;;;;30.38;13.23;;;;;;;22.40;73.48;100023.13;10453023;28;20029;-65
2023/05/24 20:12:52;;;;;;;28.42;8.38;;;;;;;22.34;73.42;100019.53;10453454;28;20095;-65
2023/05/24 20:17:53;;;;;;;19.70;7.47;;;;;;;22.31;72.34;99984.88;10453294;28;20037;-65
2023/05/24 20:22:54;;;;;;;12.85;5.95;;;;;;;22.14;72.36;99945.41;10453211;28;20057;-65
2023/05/24 20:27:55;;;;;;;17.75;5.32;;;;;;;22.01;72.38;99928.50;10469087;28;20052;-65
2023/05/24 20:32:55;;;;;;;14.75;4.90;;;;;;;22.49;72.56;99993.72;10453578;28;20439;-65
2023/05/24 20:37:56;;;;;;;16.30;4.88;;;;;;;22.19;72.89;99934.69;10452818;28;20044;-65
2023/05/24 20:42:57;;;;;;;12.32;4.28;;;;;;;22.41;73.99;99996.91;10460092;28;20041;-65
2023/05/24 20:47:58;;;;;;;9.35;4.60;;;;;;;22.27;74.53;99986.47;10480030;28;20480;-65
2023/05/24 20:52:58;;;;;;;12.07;4.57;;;;;;;22.20;75.42;99975.03;10502373;28;20123;-65
2023/05/24 20:57:59;;;;;;;10.95;4.47;;;;;;;21.80;74.72;99875.28;10502170;28;20043;-65
2023/05/24 21:03:00;;;;;;;9.38;4.35;;;;;;;22.24;75.45;99957.19;10502385;28;20137;-65
2023/05/24 21:08:02;;;;;;;10.00;4.97;;;;;;;22.17;76.16;99972.00;10475986;28;20041;-67
2023/05/24 21:13:04;;;;;;;18.90;6.50;;;;;;;22.08;76.24;99972.44;10459716;28;20045;-65
2023/05/24 21:18:05;;;;;;;7.90;3.83;;;;;;;21.77;76.23;99909.03;10460047;28;20087;-64
2023/05/24 21:23:05;;;;;;;10.55;4.55;;;;;;;22.01;77.14;99973.66;10465269;28;20389;-65
2023/05/24 21:28:07;;;;;;;12.30;5.40;;;;;;;21.66;76.21;99934.34;10501041;28;20052;-65
2023/05/24 21:33:07;;;;;;;12.57;5.97;;;;;;;21.78;76.77;99945.03;10501286;28;20062;-65
2023/05/24 21:38:08;;;;;;;20.10;6.65;;;;;;;22.05;77.20;99986.47;10500681;28;20051;-65
2023/05/24 21:43:11;;;;;;;10.70;6.05;;;;;;;21.99;77.27;99970.44;10500375;28;20067;-65
2023/05/24 21:48:11;;;;;;;12.77;5.90;;;;;;;21.56;77.67;99913.38;10499840;28;20067;-65
2023/05/24 21:53:12;;;;;;;13.75;6.40;;;;;;;21.81;78.94;99993.19;10499681;28;20093;-65
2023/05/24 21:58:13;;;;;;;17.90;7.38;;;;;;;21.75;80.08;100030.16;10499834;28;20508;-64
2023/05/24 22:03:14;;;;;;;13.80;6.03;;;;;;;21.73;80.25;100031.47;10498451;28;20048;-65
2023/05/24 22:08:15;;;;;;;15.75;7.75;;;;;;;21.64;80.65;100018.38;10499980;28;20404;-65
2023/05/24 22:13:16;;;;;;;15.80;8.68;;;;;;;21.64;80.97;100022.97;10499294;28;20119;-66
2023/05/24 22:18:17;;;;;;;17.80;8.35;;;;;;;21.65;81.50;100019.19;10499699;28;20093;-65
2023/05/24 22:23:17;;;;;;;17.58;8.52;;;;;;;21.66;81.82;100023.53;10498242;28;20040;-65
2023/05/24 22:28:18;;;;;;;12.90;6.78;;;;;;;21.59;82.18;100015.59;10498568;28;20423;-65
2023/05/24 22:33:19;;;;;;;13.15;6.72;;;;;;;21.60;81.91;100016.44;10496621;28;20036;-66
2023/05/24 22:38:20;;;;;;;16.52;7.05;;;;;;;21.28;82.66;99975.66;10498920;28;20044;-65
2023/05/24 22:43:21;;;;;;;11.75;6.32;;;;;;;21.51;82.85;100009.78;10497461;28;20044;-65
2023/05/24 22:48:25;;;;;;;11.88;6.15;;;;;;;21.39;83.25;99997.22;10497993;28;20040;-65
2023/05/24 22:53:26;;;;;;;26.40;7.07;;;;;;;21.36;84.02;100005.81;10497740;28;20092;-65
2023/05/24 22:58:26;;;;;;;18.45;6.90;;;;;;;20.81;84.67;99941.69;10497480;28;20051;-65